createdAt,value
2019-05-12T00:01:28.735Z,99871.64
2019-05-12T00:03:58.544Z,99880.48
2019-05-12T00:06:29.040Z,99880.61
2019-05-12T00:08:58.601Z,99883.69
2019-05-12T00:11:28.721Z,99886.05
2019-05-12T00:13:58.829Z,99889.95
2019-05-12T00:16:28.559Z,99887.39
2019-05-12T00:18:58.714Z,99891.89
2019-05-12T00:21:28.577Z,99896.05
2019-05-12T00:24:12.783Z,99894.34
2019-05-12T00:26:43.405Z,99896.60
2019-05-12T00:29:13.198Z,99898.80
2019-05-12T00:31:43.014Z,99906.95
2019-05-12T00:34:12.685Z,99904.92
2019-05-12T00:36:42.470Z,99907.14
2019-05-12T00:39:12.209Z,99916.67
2019-05-12T00:41:44.343Z,99926.25
2019-05-12T00:44:13.365Z,99922.71
2019-05-12T00:46:43.013Z,99926.52
2019-05-12T00:49:12.704Z,99931.70
2019-05-12T00:51:42.472Z,99932.44
2019-05-12T00:54:12.159Z,99929.02
2019-05-12T00:56:41.877Z,99930.77
2019-05-12T00:59:11.534Z,99942.08
2019-05-12T01:01:41.151Z,99949.44
2019-05-12T01:04:10.729Z,99952.19
2019-05-12T01:06:40.464Z,99956.98
2019-05-12T01:09:10.411Z,99955.53
2019-05-12T01:11:40.694Z,99959.70
2019-05-12T01:14:10.474Z,99961.66
2019-05-12T01:16:40.227Z,99967.78
2019-05-12T01:19:09.815Z,99972.93
2019-05-12T01:21:39.549Z,99970.80
2019-05-12T01:24:09.329Z,99973.80
2019-05-12T01:26:39.087Z,99978.22
2019-05-12T01:29:08.866Z,99983.33
2019-05-12T01:31:40.356Z,99988.33
2019-05-12T01:34:09.972Z,99986.99
2019-05-12T01:36:39.607Z,99991.34
2019-05-12T01:39:09.456Z,99989.60
2019-05-12T01:41:39.143Z,99995.50
2019-05-12T01:44:09.056Z,99999.52
2019-05-12T01:46:38.766Z,100005.34
2019-05-12T01:49:08.567Z,100008.42
2019-05-12T01:51:38.641Z,100011.91
2019-05-12T01:54:13.877Z,100003.70
2019-05-12T01:56:39.799Z,100009.92
2019-05-12T01:59:09.428Z,100023.02
2019-05-12T02:01:39.160Z,100027.12
2019-05-12T02:04:08.854Z,100038.14
2019-05-12T02:06:38.861Z,100033.80
2019-05-12T02:09:10.909Z,100039.22
2019-05-12T02:11:40.608Z,100041.20
2019-05-12T02:14:10.323Z,100053.90
2019-05-12T02:16:40.080Z,100058.69
2019-05-12T02:19:09.789Z,100070.58
2019-05-12T02:21:39.478Z,100072.69
2019-05-12T02:24:23.030Z,100076.64
2019-05-12T02:26:40.576Z,100072.98
2019-05-12T02:29:10.419Z,100078.81
2019-05-12T02:31:40.356Z,100082.52
2019-05-12T02:34:10.106Z,100080.67
2019-05-12T02:36:39.718Z,100087.66
2019-05-12T02:39:09.424Z,100091.73
2019-05-12T02:41:44.943Z,100092.44
2019-05-12T02:44:15.233Z,100098.95
2019-05-12T02:46:44.970Z,100104.95
2019-05-12T02:49:15.589Z,100108.78
2019-05-12T02:51:45.785Z,100107.27
2019-05-12T02:54:16.110Z,100116.80
2019-05-12T02:56:47.607Z,100115.98
2019-05-12T02:59:19.418Z,100118.57
2019-05-12T03:01:50.534Z,100124.73
2019-05-12T03:04:20.823Z,100128.85
2019-05-12T03:06:50.482Z,100122.75
2019-05-12T03:09:24.141Z,100129.88
2019-05-12T03:11:55.586Z,100130.59
2019-05-12T03:14:25.233Z,100136.48
2019-05-12T03:16:55.177Z,100134.27
2019-05-12T03:19:25.355Z,100132.59
2019-05-12T03:21:55.155Z,100140.62
2019-05-12T03:24:25.244Z,100148.66
2019-05-12T03:26:56.099Z,100146.45
2019-05-12T03:29:25.973Z,100149.43
2019-05-12T03:31:57.382Z,100153.05
2019-05-12T03:34:29.269Z,100153.08
2019-05-12T03:36:59.737Z,100162.92
2019-05-12T03:39:30.010Z,100168.67
2019-05-12T03:42:00.152Z,100163.95
2019-05-12T03:44:30.375Z,100171.57
2019-05-12T03:47:00.582Z,100178.65
2019-05-12T03:49:30.983Z,100183.66
2019-05-12T03:52:01.194Z,100184.81
2019-05-12T03:54:34.741Z,100196.05
2019-05-12T03:57:04.517Z,100195.40
2019-05-12T03:59:35.065Z,100202.41
2019-05-12T04:02:05.346Z,100206.96
2019-05-12T04:04:35.618Z,100211.23
2019-05-12T04:07:05.816Z,100213.11
2019-05-12T04:09:36.986Z,100220.48
2019-05-12T04:12:07.093Z,100225.62
2019-05-12T04:14:37.430Z,100223.83
2019-05-12T04:17:07.637Z,100231.12
2019-05-12T04:19:38.066Z,100241.09
2019-05-12T04:22:08.384Z,100248.06
2019-05-12T04:24:38.516Z,100248.88
2019-05-12T04:27:08.841Z,100255.83
2019-05-12T04:29:39.002Z,100261.22
2019-05-12T04:32:09.364Z,100265.59
2019-05-12T04:34:39.653Z,100261.09
2019-05-12T04:37:09.831Z,100265.59
2019-05-12T04:39:40.262Z,100272.06
2019-05-12T04:42:10.634Z,100273.16
2019-05-12T04:44:40.893Z,100278.98
2019-05-12T04:47:14.335Z,100286.41
2019-05-12T04:49:45.208Z,100292.02
2019-05-12T04:52:15.671Z,100305.86
2019-05-12T04:54:46.155Z,100299.44
2019-05-12T04:57:20.621Z,100303.11
2019-05-12T04:59:48.308Z,100311.22
2019-05-12T05:02:18.729Z,100323.75
2019-05-12T05:04:49.119Z,100326.78
2019-05-12T05:07:19.496Z,100331.14
2019-05-12T05:09:49.720Z,100338.63
2019-05-12T05:12:20.069Z,100345.92
2019-05-12T05:14:50.325Z,100345.76
2019-05-12T05:17:20.758Z,100341.61
2019-05-12T05:19:50.879Z,100352.42
2019-05-12T05:22:21.143Z,100358.59
2019-05-12T05:24:53.505Z,100364.55
2019-05-12T05:27:24.669Z,100372.07
2019-05-12T05:29:55.468Z,100368.92
2019-05-12T05:32:25.629Z,100378.91
2019-05-12T05:34:57.843Z,100387.22
2019-05-12T05:37:30.758Z,100393.25
2019-05-12T05:39:59.740Z,100392.84
2019-05-12T05:42:32.905Z,100395.78
2019-05-12T05:45:01.100Z,100400.43
2019-05-12T05:47:33.469Z,100408.89
2019-05-12T05:50:04.779Z,100409.52
2019-05-12T05:52:38.779Z,100412.37
2019-05-12T05:55:14.885Z,100411.11
2019-05-12T05:57:40.124Z,100407.92
2019-05-12T06:00:17.249Z,100408.84
2019-05-12T06:02:44.113Z,100404.64
2019-05-12T06:05:15.135Z,100412.52
2019-05-12T06:07:45.914Z,100414.66
2019-05-12T06:10:16.328Z,100427.50
2019-05-12T06:12:54.125Z,100418.73
2019-05-12T06:15:29.815Z,100422.06
2019-05-12T06:18:04.973Z,100428.08
2019-05-12T06:20:40.106Z,100426.70
2019-05-12T06:23:10.627Z,100428.11
2019-05-12T06:25:47.470Z,100429.42
2019-05-12T06:28:14.527Z,100436.61
2019-05-12T06:30:49.379Z,100439.67
2019-05-12T06:33:17.184Z,100442.78
2019-05-12T06:35:47.461Z,100442.12
2019-05-12T06:38:17.620Z,100448.97
2019-05-12T06:40:47.852Z,100451.37
2019-05-12T06:43:18.292Z,100455.27
2019-05-12T06:45:48.593Z,100456.33
2019-05-12T06:48:19.491Z,100452.52
2019-05-12T06:50:50.910Z,100459.48
2019-05-12T06:53:26.528Z,100461.63
2019-05-12T06:55:54.007Z,100463.70
2019-05-12T06:58:27.592Z,100462.88
2019-05-12T07:00:56.674Z,100466.75
2019-05-12T07:03:30.774Z,100465.27
2019-05-12T07:05:59.210Z,100465.00
2019-05-12T07:08:32.131Z,100469.38
2019-05-12T07:11:05.778Z,100473.95
2019-05-12T07:13:34.957Z,100476.77
2019-05-12T07:16:22.075Z,100486.41
2019-05-12T07:18:49.383Z,100485.33
2019-05-12T07:21:22.132Z,100482.41
2019-05-12T07:23:53.458Z,100475.04
2019-05-12T07:26:23.687Z,100486.58
2019-05-12T07:28:54.237Z,100484.76
2019-05-12T07:31:24.601Z,100484.86
2019-05-12T07:33:55.055Z,100499.88
2019-05-12T07:36:25.961Z,100499.67
2019-05-12T07:39:03.919Z,100502.18
2019-05-12T07:41:34.049Z,100509.31
2019-05-12T07:44:04.681Z,100511.53
2019-05-12T07:46:39.789Z,100500.89
2019-05-12T07:49:05.925Z,100508.91
2019-05-12T07:51:40.522Z,100511.92
2019-05-12T07:54:07.989Z,100515.50
2019-05-12T07:56:40.777Z,100525.83
2019-05-12T07:59:10.077Z,100523.72
2019-05-12T08:01:47.500Z,100533.58
2019-05-12T08:04:13.471Z,100538.34
2019-05-12T08:06:46.793Z,100552.70
2019-05-12T08:09:15.910Z,100535.73
2019-05-12T08:11:46.182Z,100542.80
2019-05-12T08:14:25.788Z,100542.49
2019-05-12T08:16:48.540Z,100545.81
2019-05-12T08:19:23.764Z,100543.75
2019-05-12T08:21:50.610Z,100540.97
2019-05-12T08:24:20.793Z,100549.76
2019-05-12T08:26:59.521Z,100552.78
2019-05-12T08:29:24.233Z,100559.04
2019-05-12T08:31:55.214Z,100559.80
2019-05-12T08:34:25.576Z,100559.80
2019-05-12T08:36:57.950Z,100565.66
2019-05-12T08:39:27.851Z,100560.74
2019-05-12T08:41:58.273Z,100565.29
2019-05-12T08:44:33.844Z,100562.92
2019-05-12T08:47:00.444Z,100567.80
2019-05-12T08:49:34.095Z,100559.31
2019-05-12T08:52:03.852Z,100564.22
2019-05-12T08:54:34.529Z,100557.42
2019-05-12T08:57:58.972Z,100562.60
2019-05-12T09:00:44.560Z,100566.14
2019-05-12T09:03:13.702Z,100572.93
2019-05-12T09:05:44.551Z,100562.52
2019-05-12T09:08:14.996Z,100569.19
2019-05-12T09:10:45.325Z,100567.41
2019-05-12T09:13:15.493Z,100579.42
2019-05-12T09:15:45.656Z,100584.95
2019-05-12T09:18:18.783Z,100577.20
2019-05-12T09:20:52.654Z,100574.72
2019-05-12T09:23:19.847Z,100575.52
2019-05-12T09:25:50.318Z,100578.80
2019-05-12T09:28:20.550Z,100573.63
2019-05-12T09:30:51.054Z,100590.76
2019-05-12T09:33:26.705Z,100575.28
2019-05-12T09:35:54.003Z,100585.44
2019-05-12T09:38:26.325Z,100579.10
2019-05-12T09:41:00.949Z,100588.75
2019-05-12T09:43:29.112Z,100583.94
2019-05-12T09:45:59.300Z,100579.23
2019-05-12T09:48:29.565Z,100586.55
2019-05-12T09:51:00.582Z,100591.83
2019-05-12T09:53:34.141Z,100592.55
2019-05-12T09:56:04.486Z,100580.91
2019-05-12T09:58:35.239Z,100594.42
2019-05-12T10:01:05.639Z,100580.73
2019-05-12T10:03:39.932Z,100585.08
2019-05-12T10:06:11.313Z,100570.82
2019-05-12T10:08:39.461Z,100573.57
2019-05-12T10:11:10.303Z,100577.64
2019-05-12T10:13:40.844Z,100584.37
2019-05-12T10:16:13.420Z,100583.80
2019-05-12T10:18:51.201Z,100586.58
2019-05-12T10:21:17.352Z,100588.34
2019-05-12T10:23:51.509Z,100585.47
2019-05-12T10:26:19.899Z,100592.14
2019-05-12T10:28:52.227Z,100582.04
2019-05-12T10:31:24.263Z,100582.30
2019-05-12T10:33:58.152Z,100583.78
2019-05-12T10:36:27.786Z,100598.18
2019-05-12T10:38:57.941Z,100599.53
2019-05-12T10:41:28.103Z,100591.08
2019-05-12T10:43:58.377Z,100592.87
2019-05-12T10:46:28.852Z,100585.87
2019-05-12T10:48:59.281Z,100587.94
2019-05-12T10:51:29.396Z,100592.37
2019-05-12T10:54:09.111Z,100587.30
2019-05-12T10:56:31.131Z,100590.22
2019-05-12T10:59:04.114Z,100593.55
2019-05-12T11:01:38.280Z,100590.55
2019-05-12T11:04:05.243Z,100596.80
2019-05-12T11:06:39.602Z,100594.86
2019-05-12T11:09:08.819Z,100603.53
2019-05-12T11:11:46.740Z,100592.48
2019-05-12T11:14:11.611Z,100590.88
2019-05-12T11:16:44.534Z,100597.30
2019-05-12T11:19:14.095Z,100591.20
2019-05-12T11:21:44.398Z,100597.67
2019-05-12T11:24:14.879Z,100598.74
2019-05-12T11:26:45.047Z,100603.04
2019-05-12T11:29:15.504Z,100594.04
2019-05-12T11:31:45.810Z,100592.08
2019-05-12T11:34:16.177Z,100582.45
2019-05-12T11:36:46.454Z,100586.52
2019-05-12T11:39:16.866Z,100587.70
2019-05-12T11:41:47.066Z,100588.94
2019-05-12T11:44:17.583Z,100596.63
2019-05-12T11:46:48.004Z,100600.07
2019-05-12T11:49:21.596Z,100601.41
2019-05-12T11:51:50.214Z,100592.94
2019-05-12T11:54:20.574Z,100593.73
2019-05-12T11:56:53.363Z,100591.32
2019-05-12T11:59:23.737Z,100605.02
2019-05-12T12:01:56.129Z,100611.23
2019-05-12T12:04:27.180Z,100599.97
2019-05-12T12:06:57.435Z,100598.98
2019-05-12T12:09:28.023Z,100601.23
2019-05-12T12:12:03.169Z,100612.33
2019-05-12T12:14:31.854Z,100611.48
2019-05-12T12:17:02.423Z,100602.39
2019-05-12T12:19:37.294Z,100603.77
2019-05-12T12:22:04.750Z,100611.95
2019-05-12T12:24:37.902Z,100617.88
2019-05-12T12:27:07.206Z,100604.20
2019-05-12T12:29:37.441Z,100603.45
2019-05-12T12:32:09.910Z,100604.20
2019-05-12T12:34:39.643Z,100600.13
2019-05-12T12:37:10.118Z,100616.56
2019-05-12T12:39:40.635Z,100616.30
2019-05-12T12:42:10.874Z,100610.85
2019-05-12T12:44:40.989Z,100601.34
2019-05-12T12:47:11.301Z,100610.05
2019-05-12T12:49:47.575Z,100607.92
2019-05-12T12:52:13.864Z,100604.66
2019-05-12T12:54:44.289Z,100603.89
2019-05-12T12:57:14.566Z,100594.95
2019-05-12T12:59:51.026Z,100600.88
2019-05-12T13:02:17.297Z,100597.97
2019-05-12T13:04:50.369Z,100609.11
2019-05-12T13:07:18.806Z,100602.93
2019-05-12T13:09:49.318Z,100601.58
2019-05-12T13:12:19.889Z,100604.59
2019-05-12T13:14:50.394Z,100605.86
2019-05-12T13:17:20.961Z,100613.59
2019-05-12T13:19:56.787Z,100612.12
2019-05-12T13:22:24.530Z,100624.98
2019-05-12T13:24:58.098Z,100611.12
2019-05-12T13:27:29.138Z,100609.73
2019-05-12T13:30:01.898Z,100613.94
2019-05-12T13:32:37.648Z,100615.91
2019-05-12T13:35:09.751Z,100605.23
2019-05-12T13:37:36.843Z,100614.61
2019-05-12T13:40:10.022Z,100613.16
2019-05-12T13:42:40.187Z,100610.00
2019-05-12T13:45:13.954Z,100609.27
2019-05-12T13:47:43.926Z,100616.01
2019-05-12T13:50:21.476Z,100616.31
2019-05-12T13:52:45.605Z,100612.38
2019-05-12T13:55:15.762Z,100617.01
2019-05-12T13:57:52.285Z,100612.69
2019-05-12T14:00:18.106Z,100605.09
2019-05-12T14:02:49.044Z,100604.08
2019-05-12T14:05:19.627Z,100612.05
2019-05-12T14:07:54.927Z,100615.22
2019-05-12T14:10:24.316Z,100613.45
2019-05-12T14:12:54.412Z,100610.07
2019-05-12T14:15:25.178Z,100610.52
2019-05-12T14:17:55.711Z,100605.77
2019-05-12T14:20:25.930Z,100613.06
2019-05-12T14:22:56.106Z,100609.60
2019-05-12T14:25:31.002Z,100609.45
2019-05-12T14:27:59.424Z,100613.48
2019-05-12T14:30:29.398Z,100607.59
2019-05-12T14:32:59.641Z,100603.44
2019-05-12T14:35:32.420Z,100608.32
2019-05-12T14:38:03.833Z,100604.88
2019-05-12T14:40:34.881Z,100610.47
2019-05-12T14:43:10.280Z,100611.70
2019-05-12T14:45:36.491Z,100614.48
2019-05-12T14:48:09.273Z,100611.47
2019-05-12T14:50:38.801Z,100608.25
2019-05-12T14:53:08.829Z,100604.66
2019-05-12T14:55:39.119Z,100625.88
2019-05-12T14:58:14.857Z,100617.53
2019-05-12T15:00:41.018Z,100621.27
2019-05-12T15:03:13.839Z,100616.16
2019-05-12T15:05:47.021Z,100618.41
2019-05-12T15:08:21.131Z,100612.53
2019-05-12T15:10:46.740Z,100612.95
2019-05-12T15:13:17.314Z,100620.56
2019-05-12T15:15:50.033Z,100622.55
2019-05-12T15:18:18.557Z,100627.78
2019-05-12T15:20:51.428Z,100636.59
2019-05-12T15:23:23.964Z,100619.98
2019-05-12T15:25:53.828Z,100618.06
2019-05-12T15:28:24.443Z,100621.30
2019-05-12T15:30:54.725Z,100623.13
2019-05-12T15:33:26.637Z,100617.98
2019-05-12T15:35:55.725Z,100627.80
2019-05-12T15:38:25.841Z,100624.86
2019-05-12T15:40:56.054Z,100622.30
2019-05-12T15:43:26.349Z,100623.34
2019-05-12T15:45:59.429Z,100616.77
2019-05-12T15:48:28.469Z,100629.50
2019-05-12T15:50:59.406Z,100639.52
2019-05-12T15:53:29.755Z,100639.50
2019-05-12T15:56:05.710Z,100639.50
2019-05-12T15:58:33.563Z,100636.73
2019-05-12T16:01:06.021Z,100642.25
2019-05-12T16:03:36.025Z,100644.43
2019-05-12T16:06:10.060Z,100640.62
2019-05-12T16:08:38.146Z,100642.03
2019-05-12T16:11:08.246Z,100649.23
2019-05-12T16:13:38.645Z,100649.95
2019-05-12T16:16:08.837Z,100658.98
2019-05-12T16:18:40.578Z,100651.16
2019-05-12T16:21:10.015Z,100640.40
2019-05-12T16:23:40.251Z,100654.69
2019-05-12T16:26:12.490Z,100649.28
2019-05-12T16:28:44.146Z,100670.45
2019-05-12T16:31:16.102Z,100662.46
2019-05-12T16:33:46.317Z,100643.16
2019-05-12T16:36:16.470Z,100644.69
2019-05-12T16:38:50.122Z,100642.05
2019-05-12T16:41:19.792Z,100642.66
2019-05-12T16:43:49.731Z,100642.30
2019-05-12T16:46:19.875Z,100645.61
2019-05-12T16:48:54.561Z,100658.31
2019-05-12T16:51:23.781Z,100655.26
2019-05-12T16:53:54.704Z,100653.55
2019-05-12T16:56:29.513Z,100668.17
2019-05-12T16:58:57.852Z,100654.02
2019-05-12T17:01:29.471Z,100657.80
2019-05-12T17:04:00.066Z,100658.61
2019-05-12T17:06:34.981Z,100655.92
2019-05-12T17:09:03.376Z,100660.90
2019-05-12T17:11:37.312Z,100667.35
2019-05-12T17:14:05.444Z,100673.25
2019-05-12T17:16:42.090Z,100666.98
2019-05-12T17:19:10.400Z,100661.58
2019-05-12T17:21:39.667Z,100668.22
2019-05-12T17:24:10.031Z,100665.33
2019-05-12T17:26:40.369Z,100670.27
2019-05-12T17:29:10.763Z,100673.81
2019-05-12T17:31:41.282Z,100680.41
2019-05-12T17:34:11.592Z,100674.95
2019-05-12T17:36:44.826Z,100674.83
2019-05-12T17:39:18.315Z,100684.25
2019-05-12T17:41:48.984Z,100675.59
2019-05-12T17:44:19.361Z,100678.78
2019-05-12T17:46:49.666Z,100683.03
2019-05-12T17:49:29.408Z,100679.80
2019-05-12T17:51:53.461Z,100692.13
2019-05-12T17:54:26.469Z,100696.02
2019-05-12T17:56:56.846Z,100692.75
2019-05-12T17:59:29.146Z,100696.17
2019-05-12T18:01:58.730Z,100700.97
2019-05-12T18:04:31.058Z,100701.94
2019-05-12T18:07:04.325Z,100702.42
2019-05-12T18:09:32.565Z,100708.81
2019-05-12T18:12:04.278Z,100703.01
2019-05-12T18:14:44.636Z,100702.36
2019-05-12T18:17:08.642Z,100703.14
2019-05-12T18:19:38.578Z,100708.97
2019-05-12T18:22:09.593Z,100713.19
2019-05-12T18:24:40.944Z,100714.19
2019-05-12T18:27:13.470Z,100713.26
2019-05-12T18:29:44.207Z,100711.06
2019-05-12T18:32:14.784Z,100705.56
2019-05-12T18:34:44.979Z,100708.16
2019-05-12T18:37:15.387Z,100709.44
2019-05-12T18:39:45.724Z,100714.30
2019-05-12T18:42:16.140Z,100717.57
2019-05-12T18:44:46.435Z,100721.72
2019-05-12T18:47:22.372Z,100725.13
2019-05-12T18:49:50.021Z,100715.87
2019-05-12T18:52:19.590Z,100722.63
2019-05-12T18:54:52.422Z,100729.41
2019-05-12T18:57:23.857Z,100731.42
2019-05-12T18:59:55.118Z,100742.23
2019-05-12T19:02:28.471Z,100740.80
2019-05-12T19:04:57.430Z,100743.48
2019-05-12T19:07:39.291Z,100747.81
2019-05-12T19:09:59.915Z,100756.56
2019-05-12T19:12:32.470Z,100760.22
2019-05-12T19:15:04.414Z,100759.69
2019-05-12T19:17:34.071Z,100760.25
2019-05-12T19:20:07.728Z,100758.95
2019-05-12T19:22:39.435Z,100770.31
2019-05-12T19:25:14.694Z,100771.82
2019-05-12T19:27:47.012Z,100769.64
2019-05-12T19:30:19.594Z,100774.23
2019-05-12T19:32:51.830Z,100781.12
2019-05-12T19:35:23.424Z,100788.52
2019-05-12T19:37:54.027Z,100791.03
2019-05-12T19:40:24.360Z,100788.12
2019-05-12T19:43:01.826Z,100785.84
2019-05-12T19:45:25.988Z,100796.96
2019-05-12T19:47:55.809Z,100800.40
2019-05-12T19:50:25.551Z,100805.47
2019-05-12T19:52:55.476Z,100799.92
2019-05-12T19:55:26.913Z,100811.82
2019-05-12T19:57:56.521Z,100804.34
2019-05-12T20:00:26.416Z,100807.70
2019-05-12T20:02:56.135Z,100812.94
2019-05-12T20:05:25.762Z,100811.19
2019-05-12T20:07:55.380Z,100818.88
2019-05-12T20:10:25.112Z,100816.77
2019-05-12T20:12:57.053Z,100815.56
2019-05-12T20:15:30.138Z,100811.44
2019-05-12T20:17:57.600Z,100814.91
2019-05-12T20:20:36.709Z,100818.98
2019-05-12T20:22:58.897Z,100823.67
2019-05-12T20:26:23.724Z,100819.69
2019-05-12T20:28:55.530Z,100823.10
2019-05-12T20:31:27.305Z,100835.62
2019-05-12T20:34:04.197Z,100827.14
2019-05-12T20:36:28.696Z,100827.85
2019-05-12T20:38:58.409Z,100829.11
2019-05-12T20:41:28.409Z,100834.67
2019-05-12T20:43:58.325Z,100835.20
2019-05-12T20:46:27.893Z,100839.86
2019-05-12T20:49:01.204Z,100838.61
2019-05-12T20:51:29.306Z,100835.11
2019-05-12T20:53:59.248Z,100839.39
2019-05-12T20:56:29.137Z,100840.56
2019-05-12T20:58:58.874Z,100839.34
2019-05-12T21:01:30.252Z,100835.38
2019-05-12T21:03:59.920Z,100844.73
2019-05-12T21:06:33.129Z,100845.23
2019-05-12T21:09:03.348Z,100844.52
2019-05-12T21:11:33.824Z,100847.55
2019-05-12T21:14:09.806Z,100848.89
2019-05-12T21:16:38.853Z,100850.23
2019-05-12T21:19:10.975Z,100842.92
2019-05-12T21:21:38.660Z,100850.42
2019-05-12T21:24:08.574Z,100853.53
2019-05-12T21:26:38.276Z,100849.36
2019-05-12T21:29:07.821Z,100852.75
2019-05-12T21:31:37.853Z,100859.02
2019-05-12T21:34:15.103Z,100863.42
2019-05-12T21:36:38.860Z,100860.89
2019-05-12T21:39:10.425Z,100863.36
2019-05-12T21:41:40.669Z,100855.16
2019-05-12T21:44:14.113Z,100863.64
2019-05-12T21:46:52.736Z,100858.55
2019-05-12T21:49:15.795Z,100855.42
2019-05-12T21:51:50.552Z,100855.70
2019-05-12T21:54:17.146Z,100850.88
2019-05-12T21:56:49.363Z,100851.76
2019-05-12T21:59:18.945Z,100856.83
2019-05-12T22:01:49.710Z,100849.23
2019-05-12T22:04:19.833Z,100856.11
2019-05-12T22:06:51.225Z,100855.27
2019-05-12T22:09:23.887Z,100851.92
2019-05-12T22:11:54.164Z,100849.85
2019-05-12T22:14:25.158Z,100853.35
2019-05-12T22:16:56.842Z,100846.94
2019-05-12T22:19:30.837Z,100843.06
2019-05-12T22:22:00.889Z,100853.41
2019-05-12T22:24:34.603Z,100858.47
2019-05-12T22:27:02.729Z,100860.16
2019-05-12T22:29:34.261Z,100861.91
2019-05-12T22:32:05.036Z,100867.41
2019-05-12T22:34:40.334Z,100865.88
2019-05-12T22:37:06.859Z,100866.22
2019-05-12T22:39:36.559Z,100860.95
2019-05-12T22:42:06.144Z,100862.36
2019-05-12T22:44:35.766Z,100865.05
2019-05-12T22:47:12.671Z,100868.98
2019-05-12T22:49:36.845Z,100868.64
2019-05-12T22:52:07.275Z,100865.07
2019-05-12T22:54:40.443Z,100861.83
2019-05-12T22:57:08.526Z,100860.08
2019-05-12T22:59:40.270Z,100864.20
2019-05-12T23:02:09.554Z,100860.95
2019-05-12T23:04:40.356Z,100858.63
2019-05-12T23:07:10.239Z,100863.28
2019-05-12T23:09:39.947Z,100864.81
2019-05-12T23:12:14.958Z,100861.25
2019-05-12T23:14:41.110Z,100869.02
2019-05-12T23:17:11.049Z,100865.45
2019-05-12T23:19:43.030Z,100866.11
2019-05-12T23:22:14.200Z,100872.77
2019-05-12T23:24:44.236Z,100877.63
2019-05-12T23:27:13.931Z,100878.45
2019-05-12T23:29:44.361Z,100870.48
2019-05-12T23:32:15.104Z,100865.62
2019-05-12T23:34:56.500Z,100872.91
2019-05-12T23:37:16.440Z,100868.16
2019-05-12T23:39:46.081Z,100866.45
2019-05-12T23:42:15.688Z,100871.35
2019-05-12T23:44:46.912Z,100869.98
2019-05-12T23:47:16.637Z,100861.46
2019-05-12T23:49:46.324Z,100869.05
2019-05-12T23:52:15.859Z,100865.22
2019-05-12T23:54:45.639Z,100868.81
2019-05-12T23:57:15.715Z,100868.81
2019-05-12T23:59:45.529Z,100868.71
